sensor_id;sensor_type;location;lat;lon;timestamp;P1;durP1;ratioP1;P2;durP2;ratioP2
52798;SDS011;38667;42.872;74.622;2022-11-15T00:00:34;154.90;;;45.60;;
52798;SDS011;38667;42.872;74.622;2022-11-15T00:03:00;93.33;;;32.23;;
52798;SDS011;38667;42.872;74.622;2022-11-15T00:05:28;81.73;;;30.77;;
52798;SDS011;38667;42.872;74.622;2022-11-15T00:07:54;76.67;;;27.67;;
52798;SDS011;38667;42.872;74.622;2022-11-15T00:10:22;55.20;;;23.50;;
52798;SDS011;38667;42.872;74.622;2022-11-15T00:12:48;50.00;;;23.13;;
52798;SDS011;38667;42.872;74.622;2022-11-15T00:15:15;24.50;;;11.40;;
52798;SDS011;38667;42.872;74.622;2022-11-15T00:17:41;29.53;;;13.00;;
52798;SDS011;38667;42.872;74.622;2022-11-15T00:20:08;42.43;;;18.47;;
52798;SDS011;38667;42.872;74.622;2022-11-15T00:22:36;42.97;;;18.87;;
52798;SDS011;38667;42.872;74.622;2022-11-15T00:25:03;40.80;;;19.87;;
52798;SDS011;38667;42.872;74.622;2022-11-15T00:27:30;40.17;;;18.40;;
52798;SDS011;38667;42.872;74.622;2022-11-15T00:29:56;37.60;;;18.53;;
52798;SDS011;38667;42.872;74.622;2022-11-15T00:32:22;39.63;;;18.53;;
52798;SDS011;38667;42.872;74.622;2022-11-15T00:34:48;38.03;;;18.50;;
52798;SDS011;38667;42.872;74.622;2022-11-15T00:37:15;40.37;;;19.00;;
52798;SDS011;38667;42.872;74.622;2022-11-15T00:39:43;45.23;;;19.50;;
52798;SDS011;38667;42.872;74.622;2022-11-15T00:42:09;58.97;;;22.63;;
52798;SDS011;38667;42.872;74.622;2022-11-15T00:44:35;53.70;;;22.67;;
52798;SDS011;38667;42.872;74.622;2022-11-15T00:47:01;47.87;;;23.40;;
52798;SDS011;38667;42.872;74.622;2022-11-15T00:49:28;58.53;;;24.63;;
52798;SDS011;38667;42.872;74.622;2022-11-15T00:51:54;57.73;;;24.20;;
52798;SDS011;38667;42.872;74.622;2022-11-15T00:54:20;60.37;;;25.43;;
52798;SDS011;38667;42.872;74.622;2022-11-15T00:56:48;96.23;;;38.70;;
52798;SDS011;38667;42.872;74.622;2022-11-15T00:59:14;61.50;;;29.17;;
52798;SDS011;38667;42.872;74.622;2022-11-15T01:01:41;83.17;;;36.90;;
52798;SDS011;38667;42.872;74.622;2022-11-15T01:04:07;102.13;;;39.80;;
52798;SDS011;38667;42.872;74.622;2022-11-15T01:06:33;98.07;;;37.67;;
52798;SDS011;38667;42.872;74.622;2022-11-15T01:09:00;85.00;;;37.87;;
52798;SDS011;38667;42.872;74.622;2022-11-15T01:11:26;107.10;;;43.20;;
52798;SDS011;38667;42.872;74.622;2022-11-15T01:13:54;95.80;;;39.87;;
52798;SDS011;38667;42.872;74.622;2022-11-15T01:16:20;91.17;;;40.00;;
52798;SDS011;38667;42.872;74.622;2022-11-15T01:18:47;116.47;;;43.03;;
52798;SDS011;38667;42.872;74.622;2022-11-15T01:21:14;118.73;;;43.43;;
52798;SDS011;38667;42.872;74.622;2022-11-15T01:23:42;93.80;;;42.60;;
52798;SDS011;38667;42.872;74.622;2022-11-15T01:26:10;107.07;;;41.90;;
52798;SDS011;38667;42.872;74.622;2022-11-15T01:28:38;108.17;;;42.43;;
52798;SDS011;38667;42.872;74.622;2022-11-15T01:31:08;87.57;;;37.50;;
52798;SDS011;38667;42.872;74.622;2022-11-15T01:33:37;84.60;;;37.70;;
52798;SDS011;38667;42.872;74.622;2022-11-15T01:36:03;80.80;;;36.20;;
52798;SDS011;38667;42.872;74.622;2022-11-15T01:38:30;75.13;;;35.70;;
52798;SDS011;38667;42.872;74.622;2022-11-15T01:40:56;77.83;;;36.63;;
52798;SDS011;38667;42.872;74.622;2022-11-15T01:43:23;55.40;;;22.80;;
52798;SDS011;38667;42.872;74.622;2022-11-15T01:45:52;46.93;;;21.27;;
52798;SDS011;38667;42.872;74.622;2022-11-15T01:48:22;73.43;;;29.83;;
52798;SDS011;38667;42.872;74.622;2022-11-15T01:50:55;87.97;;;35.87;;
52798;SDS011;38667;42.872;74.622;2022-11-15T01:53:22;84.70;;;36.53;;
52798;SDS011;38667;42.872;74.622;2022-11-15T01:55:50;88.73;;;37.67;;
52798;SDS011;38667;42.872;74.622;2022-11-15T01:58:17;99.00;;;39.97;;
52798;SDS011;38667;42.872;74.622;2022-11-15T02:00:43;85.50;;;37.00;;
52798;SDS011;38667;42.872;74.622;2022-11-15T02:03:10;104.80;;;39.53;;
52798;SDS011;38667;42.872;74.622;2022-11-15T02:05:38;96.47;;;41.40;;
52798;SDS011;38667;42.872;74.622;2022-11-15T02:08:06;115.63;;;51.17;;
52798;SDS011;38667;42.872;74.622;2022-11-15T02:10:33;151.63;;;57.20;;
52798;SDS011;38667;42.872;74.622;2022-11-15T02:13:00;142.13;;;56.37;;
52798;SDS011;38667;42.872;74.622;2022-11-15T02:15:28;164.90;;;61.80;;
52798;SDS011;38667;42.872;74.622;2022-11-15T02:18:03;159.40;;;61.13;;
52798;SDS011;38667;42.872;74.622;2022-11-15T02:23:27;179.10;;;65.87;;
52798;SDS011;38667;42.872;74.622;2022-11-15T02:26:23;170.50;;;55.70;;
52798;SDS011;38667;42.872;74.622;2022-11-15T02:29:09;153.43;;;52.07;;
52798;SDS011;38667;42.872;74.622;2022-11-15T02:31:42;135.33;;;51.00;;
52798;SDS011;38667;42.872;74.622;2022-11-15T02:34:16;129.10;;;48.33;;
52798;SDS011;38667;42.872;74.622;2022-11-15T02:36:54;125.43;;;48.23;;
52798;SDS011;38667;42.872;74.622;2022-11-15T02:39:30;148.50;;;50.87;;
52798;SDS011;38667;42.872;74.622;2022-11-15T02:42:01;148.93;;;51.60;;
52798;SDS011;38667;42.872;74.622;2022-11-15T02:44:33;152.17;;;51.53;;
52798;SDS011;38667;42.872;74.622;2022-11-15T02:47:05;137.70;;;50.07;;
52798;SDS011;38667;42.872;74.622;2022-11-15T02:49:34;55.77;;;23.77;;
52798;SDS011;38667;42.872;74.622;2022-11-15T02:52:02;51.30;;;20.10;;
52798;SDS011;38667;42.872;74.622;2022-11-15T02:54:29;117.90;;;41.77;;
52798;SDS011;38667;42.872;74.622;2022-11-15T02:56:58;136.97;;;45.43;;
52798;SDS011;38667;42.872;74.622;2022-11-15T03:02:27;107.53;;;40.25;;
52798;SDS011;38667;42.872;74.622;2022-11-15T03:05:18;100.45;;;37.25;;
52798;SDS011;38667;42.872;74.622;2022-11-15T03:07:51;89.10;;;33.60;;
52798;SDS011;38667;42.872;74.622;2022-11-15T03:10:24;96.70;;;34.43;;
52798;SDS011;38667;42.872;74.622;2022-11-15T03:12:57;85.83;;;31.47;;
52798;SDS011;38667;42.872;74.622;2022-11-15T03:15:34;89.20;;;30.23;;
52798;SDS011;38667;42.872;74.622;2022-11-15T03:18:08;119.20;;;47.00;;
52798;SDS011;38667;42.872;74.622;2022-11-15T03:20:40;109.93;;;42.53;;
52798;SDS011;38667;42.872;74.622;2022-11-15T03:23:10;122.03;;;42.93;;
52798;SDS011;38667;42.872;74.622;2022-11-15T03:25:38;128.52;;;45.40;;
52798;SDS011;38667;42.872;74.622;2022-11-15T03:28:07;121.10;;;43.75;;
52798;SDS011;38667;42.872;74.622;2022-11-15T03:30:35;131.70;;;45.47;;
52798;SDS011;38667;42.872;74.622;2022-11-15T03:33:04;125.63;;;45.15;;
52798;SDS011;38667;42.872;74.622;2022-11-15T03:35:33;141.35;;;47.60;;
52798;SDS011;38667;42.872;74.622;2022-11-15T03:38:04;133.75;;;40.08;;
52798;SDS011;38667;42.872;74.622;2022-11-15T03:40:37;115.38;;;33.67;;
52798;SDS011;38667;42.872;74.622;2022-11-15T03:43:06;123.85;;;38.33;;
52798;SDS011;38667;42.872;74.622;2022-11-15T03:45:41;133.27;;;44.78;;
52798;SDS011;38667;42.872;74.622;2022-11-15T03:48:12;148.98;;;51.63;;
52798;SDS011;38667;42.872;74.622;2022-11-15T03:50:43;123.13;;;45.80;;
52798;SDS011;38667;42.872;74.622;2022-11-15T03:53:10;168.07;;;55.40;;
52798;SDS011;38667;42.872;74.622;2022-11-15T03:55:37;181.85;;;61.95;;
52798;SDS011;38667;42.872;74.622;2022-11-15T03:58:03;113.65;;;35.25;;
52798;SDS011;38667;42.872;74.622;2022-11-15T04:00:30;132.73;;;39.85;;
52798;SDS011;38667;42.872;74.622;2022-11-15T04:02:56;220.18;;;44.55;;
52798;SDS011;38667;42.872;74.622;2022-11-15T04:05:22;196.77;;;45.00;;
52798;SDS011;38667;42.872;74.622;2022-11-15T04:07:50;116.75;;;36.47;;
52798;SDS011;38667;42.872;74.622;2022-11-15T04:10:17;148.23;;;52.15;;
52798;SDS011;38667;42.872;74.622;2022-11-15T04:12:43;157.55;;;54.33;;
52798;SDS011;38667;42.872;74.622;2022-11-15T04:15:11;154.25;;;58.22;;
52798;SDS011;38667;42.872;74.622;2022-11-15T04:17:39;165.98;;;62.47;;
52798;SDS011;38667;42.872;74.622;2022-11-15T04:20:08;144.93;;;55.42;;
52798;SDS011;38667;42.872;74.622;2022-11-15T04:22:36;181.20;;;66.65;;
52798;SDS011;38667;42.872;74.622;2022-11-15T04:25:04;188.93;;;71.68;;
52798;SDS011;38667;42.872;74.622;2022-11-15T04:27:31;110.57;;;44.78;;
52798;SDS011;38667;42.872;74.622;2022-11-15T04:29:57;125.85;;;50.90;;
52798;SDS011;38667;42.872;74.622;2022-11-15T04:32:23;169.00;;;66.30;;
52798;SDS011;38667;42.872;74.622;2022-11-15T04:34:50;161.88;;;63.67;;
52798;SDS011;38667;42.872;74.622;2022-11-15T04:37:16;71.95;;;33.05;;
52798;SDS011;38667;42.872;74.622;2022-11-15T04:39:42;101.57;;;41.90;;
52798;SDS011;38667;42.872;74.622;2022-11-15T04:42:10;105.68;;;45.25;;
52798;SDS011;38667;42.872;74.622;2022-11-15T04:44:37;82.28;;;35.70;;
52798;SDS011;38667;42.872;74.622;2022-11-15T04:47:03;88.75;;;35.35;;
52798;SDS011;38667;42.872;74.622;2022-11-15T04:49:29;79.07;;;28.65;;
52798;SDS011;38667;42.872;74.622;2022-11-15T04:51:56;63.08;;;26.92;;
52798;SDS011;38667;42.872;74.622;2022-11-15T04:54:22;54.13;;;22.65;;
52798;SDS011;38667;42.872;74.622;2022-11-15T04:56:48;57.25;;;20.98;;
52798;SDS011;38667;42.872;74.622;2022-11-15T04:59:16;66.05;;;28.05;;
52798;SDS011;38667;42.872;74.622;2022-11-15T05:01:42;78.88;;;31.80;;
52798;SDS011;38667;42.872;74.622;2022-11-15T05:04:09;71.22;;;30.90;;
52798;SDS011;38667;42.872;74.622;2022-11-15T05:06:35;59.63;;;25.85;;
52798;SDS011;38667;42.872;74.622;2022-11-15T05:09:01;61.42;;;25.67;;
52798;SDS011;38667;42.872;74.622;2022-11-15T05:11:29;63.03;;;25.30;;
52798;SDS011;38667;42.872;74.622;2022-11-15T05:13:55;41.50;;;17.52;;
52798;SDS011;38667;42.872;74.622;2022-11-15T05:16:23;39.97;;;16.92;;
52798;SDS011;38667;42.872;74.622;2022-11-15T05:18:50;40.30;;;19.38;;
52798;SDS011;38667;42.872;74.622;2022-11-15T05:21:17;51.00;;;22.25;;
52798;SDS011;38667;42.872;74.622;2022-11-15T05:23:43;55.88;;;22.90;;
52798;SDS011;38667;42.872;74.622;2022-11-15T05:26:10;48.88;;;20.17;;
52798;SDS011;38667;42.872;74.622;2022-11-15T05:28:36;46.08;;;18.83;;
52798;SDS011;38667;42.872;74.622;2022-11-15T05:31:02;44.80;;;19.85;;
52798;SDS011;38667;42.872;74.622;2022-11-15T05:33:32;35.22;;;14.82;;
52798;SDS011;38667;42.872;74.622;2022-11-15T05:36:00;25.75;;;12.10;;
52798;SDS011;38667;42.872;74.622;2022-11-15T05:38:29;31.88;;;13.60;;
52798;SDS011;38667;42.872;74.622;2022-11-15T05:40:56;60.30;;;26.85;;
52798;SDS011;38667;42.872;74.622;2022-11-15T05:43:22;106.03;;;48.80;;
52798;SDS011;38667;42.872;74.622;2022-11-15T05:45:49;137.35;;;62.17;;
52798;SDS011;38667;42.872;74.622;2022-11-15T05:48:16;157.20;;;75.47;;
52798;SDS011;38667;42.872;74.622;2022-11-15T05:50:45;133.98;;;61.42;;
52798;SDS011;38667;42.872;74.622;2022-11-15T05:53:13;105.10;;;51.35;;
52798;SDS011;38667;42.872;74.622;2022-11-15T05:55:43;138.68;;;62.45;;
52798;SDS011;38667;42.872;74.622;2022-11-15T05:58:10;182.85;;;82.20;;
52798;SDS011;38667;42.872;74.622;2022-11-15T06:00:37;260.05;;;114.82;;
52798;SDS011;38667;42.872;74.622;2022-11-15T06:03:03;291.67;;;137.30;;
52798;SDS011;38667;42.872;74.622;2022-11-15T06:05:29;238.32;;;114.65;;
52798;SDS011;38667;42.872;74.622;2022-11-15T06:07:58;224.73;;;108.05;;
52798;SDS011;38667;42.872;74.622;2022-11-15T06:10:24;188.35;;;93.60;;
52798;SDS011;38667;42.872;74.622;2022-11-15T06:12:56;192.43;;;90.80;;
52798;SDS011;38667;42.872;74.622;2022-11-15T06:15:22;178.80;;;83.68;;
52798;SDS011;38667;42.872;74.622;2022-11-15T06:17:48;166.02;;;76.32;;
52798;SDS011;38667;42.872;74.622;2022-11-15T06:20:15;130.73;;;61.45;;
52798;SDS011;38667;42.872;74.622;2022-11-15T06:22:41;121.07;;;55.45;;
52798;SDS011;38667;42.872;74.622;2022-11-15T06:25:09;103.47;;;48.55;;
52798;SDS011;38667;42.872;74.622;2022-11-15T06:27:35;103.50;;;46.50;;
52798;SDS011;38667;42.872;74.622;2022-11-15T06:30:02;102.03;;;43.25;;
52798;SDS011;38667;42.872;74.622;2022-11-15T06:32:29;108.50;;;45.97;;
52798;SDS011;38667;42.872;74.622;2022-11-15T06:34:55;89.93;;;45.08;;
52798;SDS011;38667;42.872;74.622;2022-11-15T06:37:21;86.78;;;38.80;;
52798;SDS011;38667;42.872;74.622;2022-11-15T06:39:48;94.68;;;39.22;;
52798;SDS011;38667;42.872;74.622;2022-11-15T06:42:16;107.18;;;41.10;;
52798;SDS011;38667;42.872;74.622;2022-11-15T06:44:43;96.55;;;40.50;;
52798;SDS011;38667;42.872;74.622;2022-11-15T06:47:09;81.95;;;34.47;;
52798;SDS011;38667;42.872;74.622;2022-11-15T06:49:35;60.58;;;27.27;;
52798;SDS011;38667;42.872;74.622;2022-11-15T06:52:01;56.78;;;25.98;;
52798;SDS011;38667;42.872;74.622;2022-11-15T06:54:28;38.13;;;18.85;;
52798;SDS011;38667;42.872;74.622;2022-11-15T06:56:54;37.20;;;16.63;;
52798;SDS011;38667;42.872;74.622;2022-11-15T06:59:22;41.15;;;18.48;;
52798;SDS011;38667;42.872;74.622;2022-11-15T07:01:49;42.22;;;18.17;;
52798;SDS011;38667;42.872;74.622;2022-11-15T07:04:15;43.05;;;19.25;;
52798;SDS011;38667;42.872;74.622;2022-11-15T07:06:41;38.78;;;19.33;;
52798;SDS011;38667;42.872;74.622;2022-11-15T07:09:08;30.45;;;12.90;;
52798;SDS011;38667;42.872;74.622;2022-11-15T07:11:34;22.08;;;9.32;;
52798;SDS011;38667;42.872;74.622;2022-11-15T07:14:00;21.13;;;10.38;;
52798;SDS011;38667;42.872;74.622;2022-11-15T07:16:28;25.30;;;10.43;;
52798;SDS011;38667;42.872;74.622;2022-11-15T07:18:54;25.73;;;12.77;;
52798;SDS011;38667;42.872;74.622;2022-11-15T07:21:21;28.70;;;12.73;;
52798;SDS011;38667;42.872;74.622;2022-11-15T07:23:47;26.77;;;11.35;;
52798;SDS011;38667;42.872;74.622;2022-11-15T07:26:14;21.10;;;9.93;;
52798;SDS011;38667;42.872;74.622;2022-11-15T07:28:40;24.65;;;11.30;;
52798;SDS011;38667;42.872;74.622;2022-11-15T07:31:07;23.85;;;11.00;;
52798;SDS011;38667;42.872;74.622;2022-11-15T07:33:35;23.20;;;10.65;;
52798;SDS011;38667;42.872;74.622;2022-11-15T07:36:01;22.50;;;10.32;;
52798;SDS011;38667;42.872;74.622;2022-11-15T07:38:29;26.98;;;12.32;;
52798;SDS011;38667;42.872;74.622;2022-11-15T07:40:56;30.77;;;14.43;;
52798;SDS011;38667;42.872;74.622;2022-11-15T07:43:22;33.85;;;14.02;;
52798;SDS011;38667;42.872;74.622;2022-11-15T07:45:49;32.47;;;14.35;;
52798;SDS011;38667;42.872;74.622;2022-11-15T07:48:15;33.20;;;12.80;;
52798;SDS011;38667;42.872;74.622;2022-11-15T07:50:43;31.17;;;11.52;;
52798;SDS011;38667;42.872;74.622;2022-11-15T07:53:09;25.70;;;11.45;;
52798;SDS011;38667;42.872;74.622;2022-11-15T07:55:36;28.48;;;11.98;;
52798;SDS011;38667;42.872;74.622;2022-11-15T07:58:02;24.15;;;10.18;;
52798;SDS011;38667;42.872;74.622;2022-11-15T08:00:29;21.55;;;8.73;;
52798;SDS011;38667;42.872;74.622;2022-11-15T08:03:01;26.80;;;9.10;;
52798;SDS011;38667;42.872;74.622;2022-11-15T08:05:28;28.85;;;10.20;;
52798;SDS011;38667;42.872;74.622;2022-11-15T08:07:56;32.35;;;9.63;;
52798;SDS011;38667;42.872;74.622;2022-11-15T08:10:22;24.08;;;10.20;;
52798;SDS011;38667;42.872;74.622;2022-11-15T08:12:56;27.70;;;11.35;;
52798;SDS011;38667;42.872;74.622;2022-11-15T08:15:23;25.75;;;11.93;;
52798;SDS011;38667;42.872;74.622;2022-11-15T08:17:52;28.75;;;14.20;;
52798;SDS011;38667;42.872;74.622;2022-11-15T08:20:19;22.92;;;11.05;;
52798;SDS011;38667;42.872;74.622;2022-11-15T08:22:46;25.73;;;12.88;;
52798;SDS011;38667;42.872;74.622;2022-11-15T08:25:13;47.22;;;18.08;;
52798;SDS011;38667;42.872;74.622;2022-11-15T08:27:40;47.83;;;20.00;;
52798;SDS011;38667;42.872;74.622;2022-11-15T08:30:06;56.67;;;19.50;;
52798;SDS011;38667;42.872;74.622;2022-11-15T08:32:33;45.13;;;17.50;;
52798;SDS011;38667;42.872;74.622;2022-11-15T08:35:00;30.33;;;15.68;;
52798;SDS011;38667;42.872;74.622;2022-11-15T08:37:26;33.95;;;12.38;;
52798;SDS011;38667;42.872;74.622;2022-11-15T08:39:52;19.58;;;8.65;;
52798;SDS011;38667;42.872;74.622;2022-11-15T08:42:20;16.58;;;7.93;;
52798;SDS011;38667;42.872;74.622;2022-11-15T08:44:46;20.42;;;6.82;;
52798;SDS011;38667;42.872;74.622;2022-11-15T08:47:12;15.43;;;6.80;;
52798;SDS011;38667;42.872;74.622;2022-11-15T08:49:39;15.05;;;7.53;;
52798;SDS011;38667;42.872;74.622;2022-11-15T08:52:05;19.92;;;8.48;;
52798;SDS011;38667;42.872;74.622;2022-11-15T08:54:31;16.70;;;6.85;;
52798;SDS011;38667;42.872;74.622;2022-11-15T08:56:58;12.10;;;5.25;;
52798;SDS011;38667;42.872;74.622;2022-11-15T08:59:25;10.23;;;5.28;;
52798;SDS011;38667;42.872;74.622;2022-11-15T09:01:52;12.43;;;6.72;;
52798;SDS011;38667;42.872;74.622;2022-11-15T09:04:18;9.63;;;5.87;;
52798;SDS011;38667;42.872;74.622;2022-11-15T09:06:44;8.68;;;5.10;;
52798;SDS011;38667;42.872;74.622;2022-11-15T09:09:11;13.57;;;5.20;;
52798;SDS011;38667;42.872;74.622;2022-11-15T09:11:37;9.33;;;5.77;;
52798;SDS011;38667;42.872;74.622;2022-11-15T09:14:03;8.27;;;5.72;;
52798;SDS011;38667;42.872;74.622;2022-11-15T09:16:31;14.43;;;7.07;;
52798;SDS011;38667;42.872;74.622;2022-11-15T09:18:57;19.47;;;9.13;;
52798;SDS011;38667;42.872;74.622;2022-11-15T09:21:24;17.58;;;7.40;;
52798;SDS011;38667;42.872;74.622;2022-11-15T09:23:50;14.25;;;7.97;;
52798;SDS011;38667;42.872;74.622;2022-11-15T09:26:17;17.43;;;7.73;;
52798;SDS011;38667;42.872;74.622;2022-11-15T09:28:43;22.63;;;10.97;;
52798;SDS011;38667;42.872;74.622;2022-11-15T09:31:10;36.05;;;11.55;;
52798;SDS011;38667;42.872;74.622;2022-11-15T09:33:37;24.83;;;10.60;;
52798;SDS011;38667;42.872;74.622;2022-11-15T09:36:05;37.13;;;18.57;;
52798;SDS011;38667;42.872;74.622;2022-11-15T09:38:33;31.10;;;12.87;;
52798;SDS011;38667;42.872;74.622;2022-11-15T09:41:10;27.67;;;12.37;;
52798;SDS011;38667;42.872;74.622;2022-11-15T09:43:57;31.58;;;11.15;;
52798;SDS011;38667;42.872;74.622;2022-11-15T09:46:36;28.70;;;13.63;;
52798;SDS011;38667;42.872;74.622;2022-11-15T09:49:11;22.30;;;8.77;;
52798;SDS011;38667;42.872;74.622;2022-11-15T09:51:41;15.33;;;6.17;;
52798;SDS011;38667;42.872;74.622;2022-11-15T09:54:10;21.17;;;8.00;;
52798;SDS011;38667;42.872;74.622;2022-11-15T09:56:42;15.57;;;6.63;;
52798;SDS011;38667;42.872;74.622;2022-11-15T09:59:25;15.20;;;7.73;;
52798;SDS011;38667;42.872;74.622;2022-11-15T10:02:01;18.93;;;9.73;;
52798;SDS011;38667;42.872;74.622;2022-11-15T10:04:37;11.47;;;6.43;;
52798;SDS011;38667;42.872;74.622;2022-11-15T10:07:04;12.67;;;6.67;;
52798;SDS011;38667;42.872;74.622;2022-11-15T10:09:47;8.17;;;4.87;;
52798;SDS011;38667;42.872;74.622;2022-11-15T10:12:16;13.33;;;6.13;;
52798;SDS011;38667;42.872;74.622;2022-11-15T10:14:43;6.53;;;4.70;;
52798;SDS011;38667;42.872;74.622;2022-11-15T10:17:21;11.00;;;5.33;;
52798;SDS011;38667;42.872;74.622;2022-11-15T10:20:12;9.87;;;4.73;;
52798;SDS011;38667;42.872;74.622;2022-11-15T10:22:44;8.93;;;5.33;;
52798;SDS011;38667;42.872;74.622;2022-11-15T10:25:16;8.60;;;5.20;;
52798;SDS011;38667;42.872;74.622;2022-11-15T10:27:45;11.73;;;5.53;;
52798;SDS011;38667;42.872;74.622;2022-11-15T10:30:18;8.70;;;5.10;;
52798;SDS011;38667;42.872;74.622;2022-11-15T10:32:45;13.57;;;5.77;;
52798;SDS011;38667;42.872;74.622;2022-11-15T10:35:22;11.87;;;5.70;;
52798;SDS011;38667;42.872;74.622;2022-11-15T10:37:49;11.10;;;6.57;;
52798;SDS011;38667;42.872;74.622;2022-11-15T10:40:16;8.77;;;5.37;;
52798;SDS011;38667;42.872;74.622;2022-11-15T10:42:45;8.33;;;5.27;;
52798;SDS011;38667;42.872;74.622;2022-11-15T10:45:24;9.40;;;4.40;;
52798;SDS011;38667;42.872;74.622;2022-11-15T10:47:52;12.93;;;6.23;;
52798;SDS011;38667;42.872;74.622;2022-11-15T10:50:28;19.90;;;9.13;;
52798;SDS011;38667;42.872;74.622;2022-11-15T10:52:55;16.13;;;8.20;;
52798;SDS011;38667;42.872;74.622;2022-11-15T10:55:24;18.10;;;11.20;;
52798;SDS011;38667;42.872;74.622;2022-11-15T10:57:53;13.47;;;9.03;;
52798;SDS011;38667;42.872;74.622;2022-11-15T11:00:27;14.63;;;7.43;;
52798;SDS011;38667;42.872;74.622;2022-11-15T11:02:58;12.37;;;6.97;;
52798;SDS011;38667;42.872;74.622;2022-11-15T11:05:27;23.80;;;7.03;;
52798;SDS011;38667;42.872;74.622;2022-11-15T11:07:56;16.03;;;6.57;;
52798;SDS011;38667;42.872;74.622;2022-11-15T11:10:24;15.73;;;7.50;;
52798;SDS011;38667;42.872;74.622;2022-11-15T11:12:50;16.47;;;9.20;;
52798;SDS011;38667;42.872;74.622;2022-11-15T11:15:17;18.50;;;8.40;;
52798;SDS011;38667;42.872;74.622;2022-11-15T11:17:48;16.27;;;7.90;;
52798;SDS011;38667;42.872;74.622;2022-11-15T11:20:24;14.07;;;8.10;;
52798;SDS011;38667;42.872;74.622;2022-11-15T11:23:12;14.77;;;6.97;;
52798;SDS011;38667;42.872;74.622;2022-11-15T11:25:49;16.47;;;8.00;;
52798;SDS011;38667;42.872;74.622;2022-11-15T11:28:26;15.50;;;8.73;;
52798;SDS011;38667;42.872;74.622;2022-11-15T11:31:05;12.17;;;8.10;;
52798;SDS011;38667;42.872;74.622;2022-11-15T11:33:41;20.83;;;8.90;;
52798;SDS011;38667;42.872;74.622;2022-11-15T11:36:18;16.00;;;10.03;;
52798;SDS011;38667;42.872;74.622;2022-11-15T11:38:50;14.40;;;10.57;;
52798;SDS011;38667;42.872;74.622;2022-11-15T11:41:38;29.70;;;14.80;;
52798;SDS011;38667;42.872;74.622;2022-11-15T11:44:16;31.33;;;14.70;;
52798;SDS011;38667;42.872;74.622;2022-11-15T11:46:52;17.93;;;12.03;;
52798;SDS011;38667;42.872;74.622;2022-11-15T11:49:23;33.87;;;15.93;;
52798;SDS011;38667;42.872;74.622;2022-11-15T11:51:58;25.77;;;15.20;;
52798;SDS011;38667;42.872;74.622;2022-11-15T11:54:32;17.43;;;9.93;;
52798;SDS011;38667;42.872;74.622;2022-11-15T11:57:02;25.00;;;13.17;;
52798;SDS011;38667;42.872;74.622;2022-11-15T11:59:33;26.20;;;12.87;;
52798;SDS011;38667;42.872;74.622;2022-11-15T12:02:11;25.30;;;12.50;;
52798;SDS011;38667;42.872;74.622;2022-11-15T12:04:42;25.63;;;14.27;;
52798;SDS011;38667;42.872;74.622;2022-11-15T12:07:15;32.10;;;20.30;;
52798;SDS011;38667;42.872;74.622;2022-11-15T12:09:48;36.70;;;23.23;;
52798;SDS011;38667;42.872;74.622;2022-11-15T12:12:23;28.87;;;16.57;;
52798;SDS011;38667;42.872;74.622;2022-11-15T12:14:54;30.90;;;15.57;;
52798;SDS011;38667;42.872;74.622;2022-11-15T12:17:23;33.83;;;18.67;;
52798;SDS011;38667;42.872;74.622;2022-11-15T12:19:51;28.30;;;18.27;;
52798;SDS011;38667;42.872;74.622;2022-11-15T12:22:23;25.30;;;16.10;;
52798;SDS011;38667;42.872;74.622;2022-11-15T12:24:57;31.13;;;20.70;;
52798;SDS011;38667;42.872;74.622;2022-11-15T12:27:30;42.10;;;23.07;;
52798;SDS011;38667;42.872;74.622;2022-11-15T12:30:01;87.17;;;44.70;;
52798;SDS011;38667;42.872;74.622;2022-11-15T12:32:33;33.47;;;19.80;;
52798;SDS011;38667;42.872;74.622;2022-11-15T12:35:02;37.43;;;20.50;;
52798;SDS011;38667;42.872;74.622;2022-11-15T12:37:46;63.53;;;32.73;;
52798;SDS011;38667;42.872;74.622;2022-11-15T12:40:25;107.17;;;42.83;;
52798;SDS011;38667;42.872;74.622;2022-11-15T12:43:00;74.60;;;35.40;;
52798;SDS011;38667;42.872;74.622;2022-11-15T12:45:42;75.10;;;35.00;;
52798;SDS011;38667;42.872;74.622;2022-11-15T12:51:22;72.13;;;37.57;;
52798;SDS011;38667;42.872;74.622;2022-11-15T12:54:16;40.40;;;21.80;;
52798;SDS011;38667;42.872;74.622;2022-11-15T12:57:38;56.67;;;26.10;;
52798;SDS011;38667;42.872;74.622;2022-11-15T13:03:25;81.73;;;42.37;;
52798;SDS011;38667;42.872;74.622;2022-11-15T13:05:55;53.93;;;28.43;;
52798;SDS011;38667;42.872;74.622;2022-11-15T13:08:43;96.87;;;45.70;;
52798;SDS011;38667;42.872;74.622;2022-11-15T13:17:17;86.63;;;46.93;;
52798;SDS011;38667;42.872;74.622;2022-11-15T13:20:00;63.20;;;35.97;;
52798;SDS011;38667;42.872;74.622;2022-11-15T13:22:51;74.00;;;39.87;;
52798;SDS011;38667;42.872;74.622;2022-11-15T13:25:20;72.67;;;41.73;;
52798;SDS011;38667;42.872;74.622;2022-11-15T13:28:11;62.20;;;36.00;;
52798;SDS011;38667;42.872;74.622;2022-11-15T13:30:48;60.30;;;32.30;;
52798;SDS011;38667;42.872;74.622;2022-11-15T13:33:17;51.73;;;28.10;;
52798;SDS011;38667;42.872;74.622;2022-11-15T13:35:45;52.73;;;27.77;;
52798;SDS011;38667;42.872;74.622;2022-11-15T13:38:17;62.87;;;32.87;;
52798;SDS011;38667;42.872;74.622;2022-11-15T13:40:51;50.83;;;25.07;;
52798;SDS011;38667;42.872;74.622;2022-11-15T13:43:25;39.87;;;21.53;;
52798;SDS011;38667;42.872;74.622;2022-11-15T13:46:03;51.77;;;28.60;;
52798;SDS011;38667;42.872;74.622;2022-11-15T13:48:30;59.13;;;31.10;;
52798;SDS011;38667;42.872;74.622;2022-11-15T13:50:57;50.77;;;27.47;;
52798;SDS011;38667;42.872;74.622;2022-11-15T13:53:23;51.00;;;27.57;;
52798;SDS011;38667;42.872;74.622;2022-11-15T13:55:58;43.33;;;21.53;;
52798;SDS011;38667;42.872;74.622;2022-11-15T13:58:26;57.07;;;26.70;;
52798;SDS011;38667;42.872;74.622;2022-11-15T14:00:58;64.90;;;30.00;;
52798;SDS011;38667;42.872;74.622;2022-11-15T14:03:26;43.10;;;21.73;;
52798;SDS011;38667;42.872;74.622;2022-11-15T14:06:04;34.00;;;17.53;;
52798;SDS011;38667;42.872;74.622;2022-11-15T14:08:32;52.60;;;24.63;;
52798;SDS011;38667;42.872;74.622;2022-11-15T14:11:10;61.13;;;27.40;;
52798;SDS011;38667;42.872;74.622;2022-11-15T14:13:42;71.90;;;36.23;;
52798;SDS011;38667;42.872;74.622;2022-11-15T14:16:38;58.40;;;30.37;;
52798;SDS011;38667;42.872;74.622;2022-11-15T14:19:06;53.30;;;27.47;;
52798;SDS011;38667;42.872;74.622;2022-11-15T14:21:35;59.23;;;30.10;;
52798;SDS011;38667;42.872;74.622;2022-11-15T14:24:14;61.03;;;34.00;;
52798;SDS011;38667;42.872;74.622;2022-11-15T14:26:41;60.73;;;30.53;;
52798;SDS011;38667;42.872;74.622;2022-11-15T14:29:24;66.10;;;33.47;;
52798;SDS011;38667;42.872;74.622;2022-11-15T14:31:51;100.33;;;47.63;;
52798;SDS011;38667;42.872;74.622;2022-11-15T14:34:17;91.87;;;44.93;;
52798;SDS011;38667;42.872;74.622;2022-11-15T14:36:44;98.50;;;48.77;;
52798;SDS011;38667;42.872;74.622;2022-11-15T14:39:11;82.37;;;42.27;;
52798;SDS011;38667;42.872;74.622;2022-11-15T14:41:37;69.50;;;34.40;;